Time;durP1;ratioP1;P1;durP2;ratioP2;P2;SDS_P1;SDS_P2;PMS_P1;PMS_P2;Temp;Humidity;BMP_temperature;BMP_pressure;BME280_temperature;BME280_humidity;BME280_pressure;Samples;Min_cycle;Max_cycle;Signal;HPM_P1;HPM_P2
2023/10/27 00:01:44;;;;;;;12.63;11.37;;;13.30;99.90;;;;;;5012623;28;20449;-68
2023/10/27 00:04:10;;;;;;;12.83;11.53;;;13.30;99.90;;;;;;5014441;28;20531;-68
2023/10/27 00:06:36;;;;;;;14.70;13.33;;;13.20;99.90;;;;;;5012790;28;20432;-63
2023/10/27 00:09:02;;;;;;;12.43;11.23;;;13.20;99.90;;;;;;5012591;28;20429;-68
2023/10/27 00:11:28;;;;;;;14.27;12.87;;;13.20;99.90;;;;;;5012933;28;20190;-68
2023/10/27 00:13:55;;;;;;;13.77;12.37;;;13.20;99.90;;;;;;5013786;28;20404;-68
2023/10/27 00:16:21;;;;;;;14.70;12.23;;;13.20;99.90;;;;;;5014364;28;20580;-67
2023/10/27 00:18:47;;;;;;;13.50;12.10;;;13.20;99.90;;;;;;5012640;28;20437;-67
2023/10/27 00:21:13;;;;;;;16.37;12.57;;;13.20;99.90;;;;;;5013831;28;20535;-67
2023/10/27 00:23:38;;;;;;;11.90;10.70;;;13.20;99.90;;;;;;5013206;28;20474;-67
2023/10/27 00:26:05;;;;;;;13.50;12.10;;;13.20;99.90;;;;;;5013678;28;20413;-67
2023/10/27 00:28:31;;;;;;;14.07;12.23;;;13.20;99.90;;;;;;5013665;28;20212;-67
2023/10/27 00:30:58;;;;;;;12.63;11.43;;;13.10;99.90;;;;;;5013267;28;20417;-67
2023/10/27 00:33:24;;;;;;;12.10;10.90;;;13.10;99.90;;;;;;5014066;28;20401;-67
2023/10/27 00:35:51;;;;;;;14.17;11.50;;;13.10;99.90;;;;;;5011575;28;20414;-67
2023/10/27 00:38:17;;;;;;;13.03;11.73;;;13.10;99.90;;;;;;5013878;28;20187;-66
2023/10/27 00:40:43;;;;;;;13.63;10.67;;;13.10;99.90;;;;;;5011756;28;20567;-67
2023/10/27 00:43:15;;;;;;;12.93;11.53;;;13.10;99.90;;;;;;5013843;28;20533;-67
2023/10/27 00:45:41;;;;;;;13.03;11.73;;;13.10;99.90;;;;;;5012554;28;20466;-67
2023/10/27 00:48:07;;;;;;;12.40;11.10;;;13.10;99.90;;;;;;5011159;28;20433;-67
2023/10/27 00:50:33;;;;;;;14.70;11.73;;;13.00;99.90;;;;;;5013506;28;20538;-67
2023/10/27 00:52:59;;;;;;;14.63;12.90;;;13.00;99.90;;;;;;5013015;28;20891;-67
2023/10/27 00:55:25;;;;;;;15.17;12.60;;;13.00;99.90;;;;;;5013637;28;20182;-67
2023/10/27 00:57:53;;;;;;;14.10;12.57;;;13.00;99.90;;;;;;5012359;28;20904;-66
2023/10/27 01:00:19;;;;;;;17.83;12.60;;;13.00;99.90;;;;;;5013513;28;20637;-67
2023/10/27 01:02:45;;;;;;;14.40;12.90;;;13.00;99.90;;;;;;5012297;28;20469;-66
2023/10/27 01:05:11;;;;;;;16.30;12.73;;;13.00;99.90;;;;;;5012830;28;20425;-68
2023/10/27 01:07:38;;;;;;;15.90;14.33;;;13.00;99.90;;;;;;5013107;28;20551;-61
2023/10/27 01:10:04;;;;;;;17.50;14.60;;;13.00;99.90;;;;;;5012414;28;20182;-68
2023/10/27 01:12:31;;;;;;;16.13;12.97;;;13.00;99.90;;;;;;5013212;28;20516;-68
2023/10/27 01:14:57;;;;;;;14.70;12.50;;;12.90;99.90;;;;;;5012228;28;20924;-68
2023/10/27 01:17:23;;;;;;;18.03;12.10;;;12.90;99.90;;;;;;5013182;28;20405;-68
2023/10/27 01:19:48;;;;;;;16.03;11.03;;;12.90;99.90;;;;;;5010995;28;20200;-67
2023/10/27 01:22:15;;;;;;;15.10;12.37;;;12.90;99.90;;;;;;5012617;28;20597;-67
2023/10/27 01:24:41;;;;;;;15.07;11.00;;;12.90;99.90;;;;;;5011882;28;20692;-63
2023/10/27 01:27:07;;;;;;;20.63;12.27;;;12.90;99.90;;;;;;5013038;28;20420;-67
2023/10/27 01:29:34;;;;;;;12.40;11.10;;;12.90;99.90;;;;;;5012955;28;20530;-67
2023/10/27 01:31:59;;;;;;;26.13;11.57;;;12.90;99.90;;;;;;5010681;28;20463;-67
2023/10/27 01:34:25;;;;;;;23.17;11.73;;;12.80;99.90;;;;;;5012385;28;20457;-67
2023/10/27 01:36:51;;;;;;;13.90;10.97;;;12.90;99.90;;;;;;5011683;28;20218;-67
2023/10/27 01:39:17;;;;;;;24.60;12.97;;;12.80;99.90;;;;;;5012824;28;20182;-67
2023/10/27 01:41:43;;;;;;;13.57;11.80;;;12.80;99.90;;;;;;5010041;28;20221;-66
2023/10/27 01:44:08;;;;;;;13.27;11.77;;;12.80;99.90;;;;;;5013027;28;20766;-68
2023/10/27 01:46:34;;;;;;;12.70;11.47;;;12.80;99.90;;;;;;5012695;28;20685;-68
2023/10/27 01:49:00;;;;;;;13.30;10.83;;;12.80;99.90;;;;;;5010532;28;20180;-68
2023/10/27 01:51:26;;;;;;;19.53;10.60;;;12.80;99.90;;;;;;5012156;28;20596;-67
2023/10/27 01:53:51;;;;;;;13.10;11.70;;;12.80;99.90;;;;;;5011615;28;20212;-67
2023/10/27 01:56:17;;;;;;;20.13;11.70;;;12.70;99.90;;;;;;5007683;28;20186;-67
2023/10/27 01:58:46;;;;;;;12.03;10.70;;;12.70;99.90;;;;;;4992306;28;20189;-66
2023/10/27 02:01:14;;;;;;;12.87;10.80;;;12.70;99.90;;;;;;5010173;28;20460;-67
2023/10/27 02:03:40;;;;;;;13.50;11.07;;;12.70;99.90;;;;;;5009437;28;20488;-61
2023/10/27 02:06:06;;;;;;;12.60;11.30;;;12.70;99.90;;;;;;5011850;28;20882;-67
2023/10/27 02:08:32;;;;;;;12.83;11.50;;;12.70;99.90;;;;;;5012383;28;20413;-67
2023/10/27 02:10:58;;;;;;;20.27;11.70;;;12.70;99.90;;;;;;5010829;28;20422;-67
2023/10/27 02:13:23;;;;;;;12.43;11.07;;;12.80;99.90;;;;;;5012496;28;20953;-67
2023/10/27 02:15:49;;;;;;;13.23;11.10;;;12.80;99.90;;;;;;5009939;28;20217;-67
2023/10/27 02:18:15;;;;;;;13.50;12.17;;;12.80;99.90;;;;;;5011276;28;20183;-66
2023/10/27 02:20:40;;;;;;;11.77;10.57;;;12.80;99.90;;;;;;5012142;28;20297;-61
2023/10/27 02:23:06;;;;;;;12.73;11.47;;;12.80;99.90;;;;;;5011993;28;20186;-67
2023/10/27 02:25:32;;;;;;;12.13;10.93;;;12.80;99.90;;;;;;5011049;28;20621;-67
2023/10/27 02:27:58;;;;;;;11.20;10.10;;;12.80;99.90;;;;;;5011525;28;20659;-68
2023/10/27 02:30:23;;;;;;;12.80;11.40;;;12.80;99.90;;;;;;5011407;28;20645;-67
2023/10/27 02:32:49;;;;;;;12.37;11.10;;;12.80;99.90;;;;;;5011479;28;20609;-67
2023/10/27 02:35:15;;;;;;;12.90;11.67;;;12.80;99.90;;;;;;5012475;28;20189;-67
2023/10/27 02:37:41;;;;;;;13.40;11.70;;;12.90;99.90;;;;;;5012345;28;20619;-61
2023/10/27 02:40:07;;;;;;;14.40;12.90;;;12.90;99.90;;;;;;5009688;28;20186;-68
2023/10/27 02:42:33;;;;;;;13.50;12.20;;;12.90;99.90;;;;;;5012041;28;20205;-67
2023/10/27 02:44:58;;;;;;;14.23;12.73;;;12.90;99.90;;;;;;5010979;28;20420;-67
2023/10/27 02:47:24;;;;;;;13.57;11.90;;;12.90;99.90;;;;;;5010933;28;20189;-67
2023/10/27 02:49:50;;;;;;;12.43;11.23;;;12.90;99.90;;;;;;5013013;28;20194;-68
2023/10/27 02:52:16;;;;;;;13.57;12.17;;;12.90;99.90;;;;;;5016000;28;20230;-68
2023/10/27 02:54:41;;;;;;;14.40;12.80;;;12.90;99.90;;;;;;5015137;28;20422;-61
2023/10/27 02:57:07;;;;;;;16.53;13.00;;;13.00;99.90;;;;;;5014948;28;20185;-68
2023/10/27 02:59:34;;;;;;;15.80;13.20;;;12.90;99.90;;;;;;5015645;28;20317;-68
2023/10/27 03:02:00;;;;;;;13.50;12.20;;;12.90;99.90;;;;;;5014825;28;20206;-68
2023/10/27 03:04:29;;;;;;;15.37;13.80;;;12.90;99.90;;;;;;5015677;28;20409;-68
2023/10/27 03:06:54;;;;;;;14.27;12.77;;;12.90;99.90;;;;;;5014381;28;20603;-67
2023/10/27 03:09:20;;;;;;;15.20;13.70;;;12.90;99.90;;;;;;5015567;28;20430;-68
2023/10/27 03:11:46;;;;;;;14.47;13.17;;;12.90;99.90;;;;;;5014904;28;20204;-61
2023/10/27 03:14:12;;;;;;;15.87;14.20;;;12.90;99.90;;;;;;5013841;28;20198;-68
2023/10/27 03:16:37;;;;;;;15.37;13.90;;;12.90;99.90;;;;;;5015398;28;20167;-68
2023/10/27 03:19:03;;;;;;;14.60;13.10;;;12.90;99.90;;;;;;5007246;28;20189;-67
2023/10/27 03:21:29;;;;;;;16.30;14.60;;;13.00;99.90;;;;;;5007728;28;20204;-67
2023/10/27 03:23:55;;;;;;;22.63;16.97;;;13.00;99.90;;;;;;5013868;28;20206;-68
2023/10/27 03:26:21;;;;;;;19.03;15.87;;;12.90;99.90;;;;;;5015196;28;20414;-68
2023/10/27 03:28:48;;;;;;;18.40;14.80;;;12.90;99.90;;;;;;5013705;28;20851;-61
2023/10/27 03:31:14;;;;;;;16.50;14.07;;;12.90;99.90;;;;;;5015075;28;20232;-68
2023/10/27 03:33:39;;;;;;;17.20;15.30;;;13.00;99.90;;;;;;5015022;28;20404;-68
2023/10/27 03:36:05;;;;;;;19.83;15.03;;;13.00;99.90;;;;;;5014212;28;20184;-68
2023/10/27 03:38:31;;;;;;;16.70;14.37;;;13.20;99.90;;;;;;5015054;28;20181;-68
2023/10/27 03:40:58;;;;;;;17.33;14.40;;;13.00;99.90;;;;;;5014017;28;20461;-67
2023/10/27 03:43:23;;;;;;;15.87;14.17;;;13.00;99.90;;;;;;5012638;28;20429;-68
2023/10/27 03:45:49;;;;;;;16.60;13.43;;;13.00;99.90;;;;;;5014111;28;20423;-66
2023/10/27 03:48:15;;;;;;;15.33;13.03;;;13.00;99.90;;;;;;5014035;28;20540;-67
2023/10/27 03:50:41;;;;;;;14.37;12.87;;;13.00;99.90;;;;;;5014512;28;20514;-67
2023/10/27 03:53:07;;;;;;;14.27;12.67;;;13.00;99.90;;;;;;5014015;28;20200;-67
2023/10/27 03:55:33;;;;;;;15.37;13.17;;;13.00;99.90;;;;;;5000210;28;20183;-68
2023/10/27 03:58:17;;;;;;;13.60;11.90;;;13.00;99.90;;;;;;4993049;28;20429;-67
2023/10/27 04:00:43;;;;;;;15.03;12.00;;;13.00;99.90;;;;;;4993827;28;20420;-67
2023/10/27 04:03:10;;;;;;;14.93;12.20;;;13.00;99.90;;;;;;4994318;28;20417;-67
2023/10/27 04:05:35;;;;;;;13.97;12.40;;;13.00;99.90;;;;;;4995072;28;20176;-67
2023/10/27 04:08:01;;;;;;;14.50;12.37;;;13.00;99.90;;;;;;4994511;28;20989;-67
2023/10/27 04:10:28;;;;;;;12.97;11.60;;;13.10;99.90;;;;;;4994989;28;20170;-67
2023/10/27 04:12:54;;;;;;;15.90;11.20;;;13.00;99.90;;;;;;4994158;28;20178;-67
2023/10/27 04:15:19;;;;;;;14.90;11.57;;;13.10;99.90;;;;;;4994873;28;20406;-67
2023/10/27 04:17:45;;;;;;;13.00;11.60;;;13.10;99.90;;;;;;4995516;28;20414;-67
2023/10/27 04:20:11;;;;;;;12.37;10.40;;;13.10;99.90;;;;;;5012668;28;20251;-67
2023/10/27 04:22:36;;;;;;;12.03;10.87;;;13.10;99.90;;;;;;5013314;28;20259;-67
2023/10/27 04:25:02;;;;;;;11.97;10.67;;;13.10;99.90;;;;;;5013294;28;20182;-67
2023/10/27 04:27:28;;;;;;;13.97;10.37;;;13.10;99.90;;;;;;4994562;28;20251;-66
2023/10/27 04:29:55;;;;;;;13.13;10.70;;;13.10;99.90;;;;;;4993521;28;20265;-67
2023/10/27 04:32:20;;;;;;;12.87;10.70;;;13.10;99.90;;;;;;4996491;28;20417;-67
2023/10/27 04:34:46;;;;;;;12.80;11.40;;;13.10;99.90;;;;;;5014105;28;20412;-67
2023/10/27 04:37:12;;;;;;;12.60;11.03;;;13.20;99.90;;;;;;5013338;28;20177;-67
2023/10/27 04:39:38;;;;;;;11.23;10.07;;;13.20;99.90;;;;;;5013990;28;20414;-67
2023/10/27 04:42:04;;;;;;;12.27;11.00;;;13.20;99.90;;;;;;5012494;28;20197;-67
2023/10/27 04:44:30;;;;;;;13.03;11.70;;;13.20;99.90;;;;;;5008771;28;20310;-67
2023/10/27 04:46:56;;;;;;;12.40;11.10;;;13.20;99.90;;;;;;4997412;28;20879;-67
2023/10/27 04:49:22;;;;;;;12.17;9.40;;;13.20;99.90;;;;;;5011603;28;20188;-66
2023/10/27 04:51:47;;;;;;;9.37;8.50;;;13.20;99.90;;;;;;5011919;28;20240;-69
2023/10/27 04:54:13;;;;;;;9.60;8.70;;;13.20;99.90;;;;;;5001890;28;20440;-70
2023/10/27 04:56:39;;;;;;;8.63;7.73;;;13.20;99.90;;;;;;5013240;28;20186;-70
2023/10/27 04:59:05;;;;;;;9.40;8.37;;;13.20;99.90;;;;;;5012796;28;20182;-69
2023/10/27 05:01:30;;;;;;;9.20;8.30;;;13.20;99.90;;;;;;5001692;28;20662;-69
2023/10/27 05:03:56;;;;;;;8.03;7.33;;;13.20;99.90;;;;;;5008797;28;20186;-69
2023/10/27 05:06:22;;;;;;;10.03;8.33;;;13.20;99.90;;;;;;5012229;28;20181;-69
2023/10/27 05:08:50;;;;;;;11.27;8.70;;;13.20;99.90;;;;;;5013254;28;20427;-68
2023/10/27 05:11:17;;;;;;;9.70;8.40;;;13.20;99.90;;;;;;5009244;28;20194;-70
2023/10/27 05:13:43;;;;;;;11.33;8.70;;;13.20;99.90;;;;;;5004047;28;20456;-70
2023/10/27 05:16:09;;;;;;;9.07;8.17;;;13.20;99.90;;;;;;4992959;28;20441;-70
2023/10/27 05:18:34;;;;;;;8.57;7.67;;;13.20;99.90;;;;;;4997626;28;20528;-71
2023/10/27 05:21:00;;;;;;;9.40;7.93;;;13.20;99.90;;;;;;4999677;28;20455;-70
2023/10/27 05:23:26;;;;;;;9.80;7.77;;;13.20;99.90;;;;;;5013184;28;20191;-70
2023/10/27 05:25:52;;;;;;;9.30;7.50;;;13.20;99.90;;;;;;5012807;28;20467;-62
2023/10/27 05:28:19;;;;;;;10.40;7.60;;;13.20;99.90;;;;;;5003304;28;20183;-70
2023/10/27 05:30:46;;;;;;;10.90;7.17;;;13.20;99.90;;;;;;5009983;28;20432;-72
2023/10/27 05:33:12;;;;;;;11.30;8.00;;;13.20;99.90;;;;;;5008082;28;20432;-72
2023/10/27 05:35:38;;;;;;;11.73;8.50;;;13.10;99.90;;;;;;5008906;28;20461;-68
2023/10/27 05:38:04;;;;;;;9.73;8.63;;;13.10;99.90;;;;;;5009848;28;20449;-72
2023/10/27 05:40:31;;;;;;;11.60;9.00;;;13.10;99.90;;;;;;5004237;28;20190;-68
2023/10/27 05:42:58;;;;;;;16.60;13.63;;;13.10;99.90;;;;;;5012262;28;20187;-67
2023/10/27 05:45:23;;;;;;;12.77;8.90;;;13.10;99.90;;;;;;5010350;28;20427;-67
2023/10/27 05:47:49;;;;;;;7.90;7.20;;;13.00;99.90;;;;;;5009005;28;20430;-67
2023/10/27 05:50:15;;;;;;;8.60;7.40;;;12.90;99.90;;;;;;4993893;28;20601;-67
2023/10/27 05:52:40;;;;;;;12.83;8.40;;;12.90;99.90;;;;;;4993342;28;20186;-68
2023/10/27 05:55:07;;;;;;;9.80;8.80;;;13.00;99.90;;;;;;4992184;28;20186;-67
2023/10/27 05:57:33;;;;;;;10.07;9.07;;;13.00;99.90;;;;;;4974604;28;20204;-67
2023/10/27 05:59:59;;;;;;;8.27;7.47;;;13.00;99.90;;;;;;4974074;28;20465;-67
2023/10/27 06:02:24;;;;;;;7.83;7.13;;;13.10;99.90;;;;;;4992363;28;20209;-67
2023/10/27 06:04:50;;;;;;;8.20;6.83;;;13.10;99.90;;;;;;4975343;28;20433;-67
2023/10/27 06:07:17;;;;;;;6.73;6.10;;;13.10;99.90;;;;;;4992007;28;20183;-68
2023/10/27 06:09:44;;;;;;;7.27;6.50;;;13.20;99.90;;;;;;4991564;28;20432;-68
2023/10/27 06:12:09;;;;;;;9.40;7.30;;;13.20;99.90;;;;;;4974561;28;20529;-67
2023/10/27 06:14:35;;;;;;;8.50;7.43;;;13.20;99.90;;;;;;4986949;28;20414;-68
2023/10/27 06:17:01;;;;;;;8.67;7.30;;;13.30;99.90;;;;;;4977016;28;20423;-68
2023/10/27 06:19:27;;;;;;;8.17;7.30;;;13.30;99.90;;;;;;4979712;28;20226;-68
2023/10/27 06:22:03;;;;;;;9.87;7.37;;;13.30;99.90;;;;;;4956252;28;20281;-68
2023/10/27 06:24:29;;;;;;;12.17;7.20;;;13.30;99.90;;;;;;4985491;28;20418;-66
2023/10/27 06:26:55;;;;;;;8.23;7.50;;;13.40;99.90;;;;;;4990083;28;20464;-65
2023/10/27 06:29:21;;;;;;;8.60;7.83;;;13.30;99.90;;;;;;4996642;28;20217;-66
2023/10/27 06:31:47;;;;;;;11.03;8.43;;;13.40;99.90;;;;;;4996564;28;20190;-67
2023/10/27 06:34:13;;;;;;;11.77;9.83;;;13.40;99.90;;;;;;4994330;28;20435;-65
2023/10/27 06:36:39;;;;;;;8.40;7.60;;;13.60;99.90;;;;;;4994471;28;20186;-67
2023/10/27 06:39:04;;;;;;;15.20;8.00;;;13.90;99.90;;;;;;4985836;28;20586;-67
2023/10/27 06:41:30;;;;;;;9.57;7.30;;;14.10;99.90;;;;;;4988189;28;20213;-68
2023/10/27 06:43:56;;;;;;;9.50;8.07;;;14.10;99.90;;;;;;4980248;28;20257;-65
2023/10/27 06:46:22;;;;;;;8.20;7.40;;;14.10;99.90;;;;;;4982823;28;20204;-67
2023/10/27 06:48:50;;;;;;;9.03;7.70;;;14.00;99.90;;;;;;4975299;28;20542;-67
2023/10/27 06:51:16;;;;;;;8.43;7.57;;;14.00;99.90;;;;;;4987167;28;20500;-68
2023/10/27 06:53:42;;;;;;;8.57;7.60;;;13.90;99.90;;;;;;5015503;28;20933;-67
2023/10/27 06:56:08;;;;;;;11.60;8.20;;;13.90;99.90;;;;;;5015115;28;20277;-67
2023/10/27 06:58:34;;;;;;;10.43;8.10;;;13.80;99.90;;;;;;5011558;28;20447;-67
2023/10/27 07:01:07;;;;;;;10.30;8.53;;;13.80;99.90;;;;;;5014776;28;20542;-67
2023/10/27 07:03:35;;;;;;;9.77;8.20;;;13.80;99.90;;;;;;5005328;28;20653;-67
2023/10/27 07:06:03;;;;;;;13.20;7.90;;;13.70;99.90;;;;;;5013766;28;20421;-67
2023/10/27 07:08:30;;;;;;;8.73;7.53;;;13.70;99.90;;;;;;4996129;28;20423;-67
2023/10/27 07:10:59;;;;;;;11.37;7.60;;;13.70;99.90;;;;;;5001218;28;20782;-68
2023/10/27 07:13:28;;;;;;;9.47;8.00;;;13.70;99.90;;;;;;5012582;28;20432;-67
2023/10/27 07:15:55;;;;;;;8.80;7.90;;;13.60;99.90;;;;;;5009553;28;20443;-67
2023/10/27 07:18:20;;;;;;;10.80;7.20;;;13.60;99.90;;;;;;5004236;28;20417;-66
2023/10/27 07:20:47;;;;;;;9.80;8.07;;;13.60;99.90;;;;;;5006984;28;20438;-67
2023/10/27 07:23:13;;;;;;;8.07;7.33;;;13.60;99.90;;;;;;5014683;28;20479;-67
2023/10/27 07:25:39;;;;;;;9.23;8.33;;;13.60;99.90;;;;;;5013400;28;20428;-67
2023/10/27 07:28:05;;;;;;;11.63;8.13;;;13.50;99.90;;;;;;5015254;28;20504;-67
2023/10/27 07:30:31;;;;;;;9.40;8.33;;;13.50;99.90;;;;;;5014494;28;20186;-67
2023/10/27 07:32:57;;;;;;;10.57;8.23;;;13.50;99.90;;;;;;5015631;28;20170;-67
2023/10/27 07:35:23;;;;;;;12.90;8.93;;;13.50;99.90;;;;;;5015047;28;20166;-67
2023/10/27 07:37:49;;;;;;;11.33;8.13;;;13.40;99.90;;;;;;5014280;28;20509;-68
2023/10/27 07:40:18;;;;;;;9.77;8.77;;;13.40;99.90;;;;;;5015017;28;20402;-67
2023/10/27 07:42:43;;;;;;;13.30;9.23;;;13.40;99.90;;;;;;5015528;28;20448;-67
2023/10/27 07:45:09;;;;;;;9.80;8.80;;;13.50;99.90;;;;;;5014972;28;20749;-67
2023/10/27 07:47:35;;;;;;;12.37;9.60;;;13.40;99.90;;;;;;5012909;28;20183;-67
2023/10/27 07:50:01;;;;;;;9.17;8.33;;;13.50;99.90;;;;;;5014644;28;20446;-66
2023/10/27 07:52:27;;;;;;;19.40;8.83;;;13.40;99.90;;;;;;5015035;28;20230;-67
2023/10/27 07:54:54;;;;;;;13.83;8.77;;;13.50;99.90;;;;;;5015270;28;20405;-67
2023/10/27 07:57:21;;;;;;;11.47;9.13;;;13.40;99.90;;;;;;5014684;28;21022;-67
2023/10/27 07:59:47;;;;;;;10.53;9.53;;;13.40;99.90;;;;;;5015193;28;20416;-67
2023/10/27 08:02:13;;;;;;;11.67;9.67;;;13.40;99.90;;;;;;5014505;28;20799;-67
2023/10/27 08:04:39;;;;;;;8.87;8.00;;;13.50;99.90;;;;;;5015366;28;20414;-67
2023/10/27 08:07:05;;;;;;;11.00;8.80;;;13.50;99.90;;;;;;5014524;28;20236;-67
2023/10/27 08:09:31;;;;;;;15.33;9.10;;;13.50;99.90;;;;;;5013518;28;20170;-67
2023/10/27 08:11:57;;;;;;;9.23;8.27;;;13.50;99.90;;;;;;5014838;28;20525;-67
2023/10/27 08:14:23;;;;;;;11.60;8.17;;;13.50;99.90;;;;;;5014167;28;20401;-67
2023/10/27 08:16:49;;;;;;;9.70;8.77;;;13.50;99.90;;;;;;5013409;28;20440;-67
2023/10/27 08:19:15;;;;;;;9.10;8.00;;;13.50;99.90;;;;;;5013480;28;20430;-67
2023/10/27 08:21:41;;;;;;;8.83;7.87;;;13.50;99.90;;;;;;5014653;28;20465;-67
2023/10/27 08:24:07;;;;;;;9.10;7.90;;;13.50;99.90;;;;;;5014041;28;20265;-67
2023/10/27 08:26:33;;;;;;;8.23;7.10;;;13.50;99.90;;;;;;5012177;28;20183;-68
2023/10/27 08:28:59;;;;;;;6.90;6.20;;;13.50;99.90;;;;;;5014568;28;20497;-68
2023/10/27 08:31:24;;;;;;;6.20;5.70;;;13.50;99.90;;;;;;5013851;28;20552;-69
2023/10/27 08:33:50;;;;;;;7.73;6.70;;;13.50;99.90;;;;;;5013567;28;20591;-67
2023/10/27 08:36:16;;;;;;;9.10;6.87;;;13.50;99.90;;;;;;5012572;28;20642;-67
2023/10/27 08:38:42;;;;;;;6.47;5.90;;;13.50;99.90;;;;;;5014436;28;20186;-67
2023/10/27 08:41:09;;;;;;;5.57;5.07;;;13.60;99.90;;;;;;5013667;28;20647;-67
2023/10/27 08:43:37;;;;;;;5.97;5.37;;;13.60;99.90;;;;;;5014273;28;20497;-67
2023/10/27 08:46:05;;;;;;;5.57;5.07;;;13.60;99.90;;;;;;5013324;28;20409;-63
2023/10/27 08:48:34;;;;;;;6.47;4.13;;;13.60;99.90;;;;;;5013974;28;20425;-67
2023/10/27 08:51:05;;;;;;;6.10;3.90;;;13.70;99.90;;;;;;5013625;28;20511;-68
2023/10/27 08:53:31;;;;;;;3.77;3.50;;;13.70;99.90;;;;;;5014333;28;20504;-67
2023/10/27 08:55:58;;;;;;;5.20;4.70;;;13.70;99.90;;;;;;5012911;28;20758;-67
2023/10/27 08:58:24;;;;;;;6.97;4.40;;;13.80;99.90;;;;;;5010686;28;20434;-67
2023/10/27 09:00:49;;;;;;;5.27;4.13;;;13.80;99.90;;;;;;5012493;28;20762;-68
2023/10/27 09:03:18;;;;;;;5.20;4.50;;;13.70;99.90;;;;;;5013394;28;20171;-67
2023/10/27 09:05:44;;;;;;;6.00;5.00;;;13.80;99.90;;;;;;5014084;28;20171;-66
2023/10/27 09:08:10;;;;;;;5.10;4.70;;;13.80;99.90;;;;;;5012015;28;20436;-67
2023/10/27 09:10:37;;;;;;;4.73;4.33;;;13.80;99.90;;;;;;5013993;28;20419;-67
2023/10/27 09:13:04;;;;;;;5.00;4.60;;;13.90;99.90;;;;;;5013786;28;20405;-67
2023/10/27 09:15:45;;;;;;;4.33;3.93;;;13.90;99.90;;;;;;5013659;28;20753;-67
2023/10/27 09:18:11;;;;;;;4.10;3.80;;;13.90;99.90;;;;;;5012838;28;20415;-67
2023/10/27 09:20:53;;;;;;;4.40;4.00;;;13.90;99.90;;;;;;5012727;28;20478;-67
2023/10/27 09:23:20;;;;;;;4.23;3.93;;;13.90;99.90;;;;;;5012993;28;20429;-68
2023/10/27 09:25:46;;;;;;;4.40;4.10;;;14.00;99.90;;;;;;5013872;28;20436;-67
2023/10/27 09:28:13;;;;;;;4.10;3.90;;;14.00;99.90;;;;;;5012916;28;20526;-67
2023/10/27 09:30:43;;;;;;;4.97;4.60;;;14.00;99.90;;;;;;5013454;28;20412;-67
2023/10/27 09:33:28;;;;;;;4.50;4.20;;;14.00;99.90;;;;;;5012792;28;20766;-67
2023/10/27 09:35:54;;;;;;;4.30;4.10;;;14.10;99.90;;;;;;5013426;28;20409;-67
2023/10/27 09:38:22;;;;;;;4.43;4.13;;;14.10;99.90;;;;;;5012665;28;20497;-67
2023/10/27 09:40:48;;;;;;;3.73;3.47;;;14.10;99.90;;;;;;5012903;28;20419;-67
2023/10/27 09:43:23;;;;;;;3.90;3.60;;;14.10;99.90;;;;;;5012697;28;20412;-67
2023/10/27 09:45:53;;;;;;;3.57;3.37;;;14.10;99.90;;;;;;5013277;28;20382;-68
2023/10/27 09:48:27;;;;;;;3.30;3.20;;;14.10;99.90;;;;;;5012680;28;20890;-67
2023/10/27 09:51:04;;;;;;;3.63;3.43;;;14.10;99.90;;;;;;5010826;28;20553;-68
2023/10/27 09:53:31;;;;;;;5.20;3.90;;;14.10;99.90;;;;;;5011388;28;20422;-69
2023/10/27 09:55:58;;;;;;;3.10;3.00;;;14.10;99.90;;;;;;5013116;28;20473;-68
2023/10/27 09:58:44;;;;;;;3.63;3.43;;;14.20;99.90;;;;;;5010373;28;20425;-67
2023/10/27 10:01:10;;;;;;;3.10;2.90;;;14.10;99.90;;;;;;5011288;28;20465;-66
2023/10/27 10:03:41;;;;;;;3.13;3.03;;;14.10;99.90;;;;;;5012620;28;20473;-68
2023/10/27 10:06:11;;;;;;;3.37;3.17;;;14.10;99.90;;;;;;5011620;28;20396;-68
2023/10/27 10:08:38;;;;;;;3.10;3.00;;;14.10;99.90;;;;;;5013032;28;20922;-68
2023/10/27 10:11:12;;;;;;;2.83;2.73;;;14.10;99.90;;;;;;5012951;28;20435;-68
2023/10/27 10:13:38;;;;;;;3.70;3.60;;;14.10;99.90;;;;;;5011571;28;20426;-68
2023/10/27 10:16:05;;;;;;;3.60;3.30;;;14.10;99.90;;;;;;5012122;28;20469;-67
2023/10/27 10:18:35;;;;;;;3.50;3.30;;;14.10;99.90;;;;;;5012307;28;20178;-67
2023/10/27 10:21:01;;;;;;;3.73;3.63;;;14.20;99.90;;;;;;5012463;28;20477;-67
2023/10/27 10:23:50;;;;;;;3.60;3.40;;;14.20;99.90;;;;;;5012178;28;20419;-67
2023/10/27 10:26:16;;;;;;;4.00;3.80;;;14.10;99.90;;;;;;5003093;28;20433;-67
2023/10/27 10:28:45;;;;;;;3.63;3.53;;;14.10;99.90;;;;;;5012430;28;20457;-68
2023/10/27 10:31:11;;;;;;;3.60;3.40;;;14.10;99.90;;;;;;5012380;28;20750;-67
2023/10/27 10:33:40;;;;;;;3.50;3.40;;;14.10;99.90;;;;;;5013113;28;20419;-67
2023/10/27 10:36:18;;;;;;;3.90;3.73;;;14.10;99.90;;;;;;5012968;28;20183;-67
2023/10/27 10:38:49;;;;;;;4.40;4.10;;;14.20;99.90;;;;;;5011465;28;20390;-68
2023/10/27 10:41:16;;;;;;;3.77;3.57;;;14.20;99.90;;;;;;5012262;28;20449;-67
2023/10/27 10:43:42;;;;;;;3.93;3.70;;;14.20;99.90;;;;;;5011128;28;20458;-67
2023/10/27 10:46:12;;;;;;;6.10;3.70;;;14.20;99.90;;;;;;5009001;28;20974;-68
2023/10/27 10:48:44;;;;;;;3.70;3.60;;;14.20;99.90;;;;;;5008592;28;20168;-67
2023/10/27 10:51:14;;;;;;;4.30;4.00;;;14.20;99.90;;;;;;5011548;28;20465;-65
2023/10/27 10:53:40;;;;;;;4.30;4.07;;;14.20;99.90;;;;;;5007667;28;20473;-71
2023/10/27 10:56:06;;;;;;;4.10;3.90;;;14.30;99.90;;;;;;4998973;28;20930;-68
2023/10/27 10:58:37;;;;;;;4.23;4.03;;;14.30;99.90;;;;;;4999301;28;20416;-69
2023/10/27 11:01:04;;;;;;;4.23;4.03;;;14.30;99.90;;;;;;5006463;28;20769;-68
2023/10/27 11:03:33;;;;;;;5.47;5.17;;;14.30;99.90;;;;;;5015364;28;20414;-66
2023/10/27 11:06:00;;;;;;;5.20;5.00;;;14.40;99.90;;;;;;5000103;28;21005;-67
2023/10/27 11:08:28;;;;;;;3.73;3.63;;;14.40;99.90;;;;;;4995488;28;20792;-68
2023/10/27 11:11:05;;;;;;;4.57;4.17;;;14.40;99.90;;;;;;5014219;28;20434;-69
2023/10/27 11:13:33;;;;;;;4.53;4.33;;;14.30;99.90;;;;;;4997263;28;20444;-67
2023/10/27 11:16:00;;;;;;;5.47;5.20;;;14.40;99.90;;;;;;5014029;28;20422;-68
2023/10/27 11:18:31;;;;;;;5.47;5.17;;;14.40;99.90;;;;;;5002143;28;20440;-69
2023/10/27 11:20:57;;;;;;;5.70;5.40;;;14.40;99.90;;;;;;5015150;28;20419;-68
2023/10/27 11:23:30;;;;;;;4.80;4.53;;;14.40;99.90;;;;;;5013626;28;20920;-68
2023/10/27 11:26:05;;;;;;;5.00;4.70;;;14.40;99.90;;;;;;5015211;28;20538;-69
2023/10/27 11:28:37;;;;;;;4.33;4.13;;;14.50;99.90;;;;;;5014255;28;20446;-68
2023/10/27 11:31:19;;;;;;;4.60;4.37;;;14.50;99.90;;;;;;5014193;28;20391;-69
2023/10/27 11:34:05;;;;;;;4.97;4.77;;;14.50;99.90;;;;;;5011888;28;20510;-68
2023/10/27 11:36:42;;;;;;;5.00;4.73;;;14.60;99.90;;;;;;5013848;28;20438;-68
2023/10/27 11:39:15;;;;;;;5.23;4.93;;;14.60;99.90;;;;;;5015382;28;20418;-69
2023/10/27 11:41:48;;;;;;;5.90;5.60;;;14.60;99.90;;;;;;5006224;28;20468;-67
2023/10/27 11:44:14;;;;;;;6.37;5.97;;;14.60;99.90;;;;;;5023587;28;20440;-63
2023/10/27 11:46:47;;;;;;;6.00;5.70;;;14.60;99.90;;;;;;4997344;28;20425;-68
2023/10/27 11:49:14;;;;;;;6.10;5.70;;;14.60;99.90;;;;;;4996398;28;20535;-64
2023/10/27 11:51:42;;;;;;;6.80;6.30;;;14.70;99.90;;;;;;5006784;28;20978;-67
2023/10/27 11:54:08;;;;;;;7.20;6.70;;;14.70;99.90;;;;;;5012232;28;20481;-68
2023/10/27 11:56:34;;;;;;;7.30;6.70;;;14.80;99.90;;;;;;5006668;28;20522;-69
2023/10/27 11:59:00;;;;;;;7.00;6.60;;;14.90;99.90;;;;;;4996461;28;20256;-68
2023/10/27 12:01:25;;;;;;;6.90;6.50;;;14.90;99.90;;;;;;4997037;28;20210;-67
2023/10/27 12:03:51;;;;;;;6.63;6.23;;;14.90;99.90;;;;;;5017557;28;20176;-68
2023/10/27 12:06:17;;;;;;;6.47;6.07;;;14.90;99.90;;;;;;5010768;28;20186;-63
2023/10/27 12:08:43;;;;;;;6.70;6.30;;;14.90;99.90;;;;;;5012626;28;20204;-69
2023/10/27 12:11:08;;;;;;;6.70;6.23;;;14.90;99.90;;;;;;5014305;28;20272;-68
2023/10/27 12:13:34;;;;;;;5.73;5.43;;;14.90;99.90;;;;;;5013290;28;20221;-68
2023/10/27 12:16:00;;;;;;;7.37;6.87;;;14.90;99.90;;;;;;5014526;28;20647;-68
2023/10/27 12:18:26;;;;;;;6.90;6.50;;;14.90;99.90;;;;;;5002929;28;20236;-69
2023/10/27 12:20:52;;;;;;;7.20;6.70;;;14.90;99.90;;;;;;5014166;28;20422;-68
2023/10/27 12:23:18;;;;;;;7.63;7.17;;;14.90;99.90;;;;;;5009656;28;20451;-63
2023/10/27 12:25:44;;;;;;;6.50;5.90;;;14.90;99.90;;;;;;5014201;28;20420;-68
2023/10/27 12:28:10;;;;;;;7.10;6.60;;;14.90;99.90;;;;;;5013898;28;20416;-68
2023/10/27 12:30:36;;;;;;;6.90;6.40;;;14.90;99.90;;;;;;5013432;28;20502;-68
2023/10/27 12:33:08;;;;;;;6.90;6.40;;;14.90;99.90;;;;;;5012295;28;20427;-67
2023/10/27 12:35:34;;;;;;;5.53;5.23;;;14.90;99.90;;;;;;5012326;28;21070;-67
2023/10/27 12:38:00;;;;;;;6.60;6.10;;;14.90;99.90;;;;;;5013814;28;20745;-66